This is the latest recevied weather packets stored in our database for station/object K7MT-WX. If no packets are shown the sender has not sent any weather packets the latest 10 day(s).
| Time | Temp. | Humidity | Pressure | Rain* | Wind** | Luminosity | Snow |
|---|---|---|---|---|---|---|---|
| 1778115192 | 20° C | 32% | 1009.2 hPa | 0 mm | - | - | - |
| 1778114292 | 20° C | 32% | 1009 hPa | 0 mm | - | - | - |
| 1778113392 | 20.56° C | 33% | 1009.2 hPa | 0 mm | - | - | - |
| 1778112462 | 22.22° C | 27% | 1009.1 hPa | 0 mm | - | - | - |
| 1778111562 | 21.67° C | 28% | 1009.2 hPa | 0 mm | - | - | - |
| 1778110662 | 22.22° C | 33% | 1009.1 hPa | 0 mm | - | - | - |
| 1778109762 | 21.67° C | 30% | 1009.4 hPa | 0 mm | - | - | - |
| 1778108862 | 21.67° C | 28% | 1009.5 hPa | 0 mm | - | - | - |
| 1778107962 | 22.22° C | 26% | 1009.7 hPa | 0 mm | - | - | - |
| 1778107062 | 21.67° C | 29% | 1010.1 hPa | 0 mm | - | - | - |
| 1778106132 | 21.11° C | 29% | 1010.2 hPa | 0 mm | - | - | - |
| 1778105232 | 20° C | 31% | 1010.7 hPa | 0 mm | - | - | - |
| 1778104332 | 20° C | 29% | 1011 hPa | 0 mm | - | - | - |
| 1778103432 | 19.44° C | 30% | 1011.3 hPa | 0 mm | - | - | - |
| 1778102532 | 18.89° C | 31% | 1011.4 hPa | 0 mm | - | - | - |
| 1778101632 | 19.44° C | 30% | 1011.6 hPa | 0 mm | - | - | - |
| 1778100732 | 18.89° C | 32% | 1011.9 hPa | 0 mm | - | - | - |
| 1778099832 | 18.33° C | 31% | 1012.1 hPa | 0 mm | - | - | - |
| 1778098932 | 17.78° C | 32% | 1012.4 hPa | 0 mm | - | - | - |
| 1778098032 | 17.22° C | 33% | 1012.7 hPa | 0 mm | - | - | - |
| 1778097132 | 16.67° C | 32% | 1013 hPa | 0 mm | - | - | - |
| 1778096232 | 16.11° C | 32% | 1013.4 hPa | 0 mm | - | - | - |
| 1778095332 | 16.11° C | 32% | 1013.7 hPa | 0 mm | - | - | - |
| 1778094432 | 15° C | 33% | 1014 hPa | 0 mm | - | - | - |
| 1778093532 | 14.44° C | 33% | 1014.4 hPa | 0 mm | - | - | - |
* Rain latest hour (hover to see other rain measurements)
** Current wind speed in m/s (hover to see current wind gust speed)